Time;durP1;ratioP1;P1;durP2;ratioP2;P2;SDS_P1;SDS_P2;PMS_P1;PMS_P2;Temp;Humidity;BMP_temperature;BMP_pressure;BME280_temperature;BME280_humidity;BME280_pressure;Samples;Min_cycle;Max_cycle;Signal;HPM_P1;HPM_P2
2022/04/28 00:01:14;;;;;;;12.27;3.13;;;;;;;;;;5025590;28;20077;-82
2022/04/28 00:03:40;;;;;;;10.05;2.88;;;;;;;;;;5022724;28;20033;-80
2022/04/28 00:06:07;;;;;;;9.77;2.75;;;;;;;;;;5026691;28;20133;-82
2022/04/28 00:08:33;;;;;;;6.03;2.53;;;;;;;;;;5025022;28;20092;-81
2022/04/28 00:10:59;;;;;;;7.20;2.65;;;;;;;;;;5009092;28;20069;-81
2022/04/28 00:13:27;;;;;;;6.95;2.20;;;;;;;;;;5024410;28;20056;-81
2022/04/28 00:15:53;;;;;;;10.27;2.33;;;;;;;;;;5027235;28;20077;-81
2022/04/28 00:18:19;;;;;;;4.55;1.90;;;;;;;;;;5025631;28;20045;-81
2022/04/28 00:20:45;;;;;;;12.75;2.80;;;;;;;;;;5008052;28;20323;-81
2022/04/28 00:23:12;;;;;;;12.05;2.50;;;;;;;;;;5025084;28;20041;-81
2022/04/28 00:25:38;;;;;;;9.88;2.58;;;;;;;;;;5023867;28;20041;-79
2022/04/28 00:28:04;;;;;;;9.40;2.80;;;;;;;;;;5024033;28;20502;-81
2022/04/28 00:30:30;;;;;;;9.73;2.15;;;;;;;;;;5025146;28;21753;-81
2022/04/28 00:32:56;;;;;;;8.38;2.78;;;;;;;;;;5023593;28;20040;-80
2022/04/28 00:35:26;;;;;;;10.35;2.90;;;;;;;;;;5027736;28;20092;-79
2022/04/28 00:37:52;;;;;;;11.80;2.67;;;;;;;;;;5036153;28;20470;-80
2022/04/28 00:40:18;;;;;;;14.38;2.45;;;;;;;;;;5023823;28;20045;-81
2022/04/28 00:42:44;;;;;;;8.90;2.53;;;;;;;;;;5024464;28;20158;-82
2022/04/28 00:45:10;;;;;;;8.13;2.42;;;;;;;;;;5024776;28;20068;-81
2022/04/28 00:50:40;;;;;;;13.05;2.90;;;;;;;;;;5021577;28;20072;-80
2022/04/28 00:53:08;;;;;;;8.38;2.40;;;;;;;;;;5023849;28;20045;-80
2022/04/28 00:55:35;;;;;;;11.88;2.65;;;;;;;;;;5021544;28;20076;-79
2022/04/28 00:58:02;;;;;;;6.80;2.22;;;;;;;;;;5001707;28;20037;-79
2022/04/28 01:00:28;;;;;;;6.20;2.55;;;;;;;;;;5018145;28;20071;-81
2022/04/28 01:02:54;;;;;;;9.25;3.72;;;;;;;;;;5002639;28;20440;-82
2022/04/28 01:05:21;;;;;;;8.02;3.35;;;;;;;;;;5018953;28;20069;-77
2022/04/28 01:07:47;;;;;;;10.40;2.85;;;;;;;;;;5020093;28;20044;-81
2022/04/28 01:10:15;;;;;;;10.77;3.15;;;;;;;;;;5020855;28;20464;-77
2022/04/28 01:12:43;;;;;;;10.30;3.10;;;;;;;;;;5019455;28;20041;-82
2022/04/28 01:15:09;;;;;;;10.65;2.80;;;;;;;;;;5019221;28;20049;-82
2022/04/28 01:17:36;;;;;;;10.38;3.03;;;;;;;;;;5014692;28;20434;-81
2022/04/28 01:20:02;;;;;;;13.25;3.95;;;;;;;;;;5021358;28;20037;-82
2022/04/28 01:22:28;;;;;;;15.43;4.35;;;;;;;;;;5018400;28;20685;-81
2022/04/28 01:24:54;;;;;;;15.43;4.22;;;;;;;;;;5021336;28;20049;-81
2022/04/28 01:27:20;;;;;;;12.05;3.28;;;;;;;;;;5019210;28;20041;-80
2022/04/28 01:29:47;;;;;;;11.38;3.67;;;;;;;;;;5020656;28;20091;-80
2022/04/28 01:32:13;;;;;;;9.88;3.15;;;;;;;;;;5020188;28;20896;-81
2022/04/28 01:34:42;;;;;;;9.80;3.75;;;;;;;;;;5017664;28;20400;-81
2022/04/28 01:37:08;;;;;;;9.30;3.28;;;;;;;;;;5020643;28;20516;-81
2022/04/28 01:39:34;;;;;;;11.00;3.35;;;;;;;;;;5020652;28;20041;-80
2022/04/28 01:42:00;;;;;;;8.00;2.92;;;;;;;;;;5018287;28;20160;-82
2022/04/28 01:44:26;;;;;;;9.30;3.17;;;;;;;;;;5015476;28;20053;-81
2022/04/28 01:46:52;;;;;;;8.80;3.42;;;;;;;;;;5023501;28;20042;-79
2022/04/28 01:49:18;;;;;;;10.23;3.67;;;;;;;;;;5000246;28;20048;-80
2022/04/28 01:57:34;;;;;;;10.05;4.15;;;;;;;;;;4942428;28;20050;-81
2022/04/28 02:00:00;;;;;;;7.50;3.80;;;;;;;;;;4955841;28;20590;-83
2022/04/28 02:02:27;;;;;;;7.07;3.70;;;;;;;;;;4984003;28;20045;-81
2022/04/28 02:04:58;;;;;;;11.20;4.15;;;;;;;;;;5013140;28;20156;-80
2022/04/28 02:07:25;;;;;;;11.85;3.85;;;;;;;;;;5015733;28;20096;-80
2022/04/28 02:09:51;;;;;;;10.43;3.70;;;;;;;;;;5015125;28;20076;-78
2022/04/28 02:12:17;;;;;;;11.70;4.45;;;;;;;;;;5016374;28;20052;-81
2022/04/28 02:14:43;;;;;;;12.60;3.95;;;;;;;;;;4998154;28;20049;-82
2022/04/28 02:17:10;;;;;;;8.32;4.10;;;;;;;;;;5017478;28;20044;-80
2022/04/28 02:19:36;;;;;;;13.70;4.75;;;;;;;;;;5013725;28;20092;-81
2022/04/28 02:22:03;;;;;;;12.00;3.97;;;;;;;;;;4982491;28;20092;-81
2022/04/28 02:24:29;;;;;;;11.00;4.40;;;;;;;;;;5016526;28;20143;-82
2022/04/28 02:26:55;;;;;;;6.45;4.00;;;;;;;;;;5023073;28;20049;-80
2022/04/28 02:29:21;;;;;;;12.02;3.95;;;;;;;;;;4995512;28;20045;-79
2022/04/28 02:31:48;;;;;;;10.65;4.22;;;;;;;;;;5017348;28;20603;-76
2022/04/28 02:34:14;;;;;;;14.55;4.40;;;;;;;;;;5001418;28;20055;-80
2022/04/28 02:36:40;;;;;;;13.57;4.35;;;;;;;;;;5017696;28;20048;-82
2022/04/28 02:39:06;;;;;;;7.03;4.38;;;;;;;;;;5016445;28;20132;-80
2022/04/28 02:41:33;;;;;;;9.45;3.88;;;;;;;;;;4995953;28;20049;-83
2022/04/28 02:43:59;;;;;;;9.20;3.85;;;;;;;;;;5014294;28;20054;-81
2022/04/28 02:46:26;;;;;;;15.10;4.32;;;;;;;;;;5017086;28;20066;-81
2022/04/28 02:48:53;;;;;;;9.10;3.83;;;;;;;;;;5017039;28;20049;-82
2022/04/28 02:51:19;;;;;;;10.38;4.03;;;;;;;;;;5019756;28;20049;-81
2022/04/28 02:53:45;;;;;;;8.07;3.80;;;;;;;;;;5004119;28;20033;-81
2022/04/28 02:56:11;;;;;;;12.85;4.20;;;;;;;;;;5030153;28;20041;-81
2022/04/28 02:58:40;;;;;;;14.65;4.18;;;;;;;;;;5022069;28;20077;-83
2022/04/28 03:01:07;;;;;;;6.45;3.70;;;;;;;;;;5030391;28;20046;-79
2022/04/28 03:03:33;;;;;;;9.32;3.80;;;;;;;;;;5016094;28;20041;-82
2022/04/28 03:11:29;;;;;;;10.55;4.30;;;;;;;;;;5000984;28;20060;-82
2022/04/28 03:13:56;;;;;;;9.90;4.10;;;;;;;;;;5000829;28;20132;-82
2022/04/28 03:16:22;;;;;;;9.70;4.28;;;;;;;;;;5016431;28;20049;-82
2022/04/28 03:18:49;;;;;;;16.85;5.05;;;;;;;;;;5017766;28;20486;-81
2022/04/28 03:21:15;;;;;;;10.02;4.40;;;;;;;;;;4999800;28;20529;-81
2022/04/28 03:23:41;;;;;;;11.60;4.40;;;;;;;;;;4999398;28;20041;-81
2022/04/28 03:26:07;;;;;;;9.50;4.22;;;;;;;;;;5003545;28;20057;-83
2022/04/28 03:28:38;;;;;;;9.15;4.32;;;;;;;;;;4999256;28;20033;-82
2022/04/28 03:31:04;;;;;;;10.75;4.80;;;;;;;;;;5016594;28;20252;-78
2022/04/28 03:33:30;;;;;;;7.55;4.00;;;;;;;;;;5015397;28;20096;-82
2022/04/28 03:35:57;;;;;;;18.20;5.80;;;;;;;;;;4984981;28;20044;-81
2022/04/28 03:38:23;;;;;;;10.77;5.13;;;;;;;;;;5017037;28;20478;-82
2022/04/28 03:40:49;;;;;;;12.93;6.47;;;;;;;;;;5001525;28;20532;-81
2022/04/28 03:43:15;;;;;;;14.13;6.00;;;;;;;;;;4995977;28;20054;-82
2022/04/28 03:45:41;;;;;;;13.40;6.10;;;;;;;;;;5016193;28;20049;-80
2022/04/28 03:48:09;;;;;;;10.07;6.30;;;;;;;;;;5018457;28;20041;-82
2022/04/28 03:50:36;;;;;;;14.25;6.63;;;;;;;;;;4983797;28;20050;-82
2022/04/28 03:53:02;;;;;;;12.68;7.00;;;;;;;;;;5019349;28;20072;-81
2022/04/28 03:55:28;;;;;;;18.75;7.30;;;;;;;;;;5020505;28;20045;-81
2022/04/28 03:57:54;;;;;;;15.85;6.03;;;;;;;;;;5023868;28;20042;-81
2022/04/28 04:00:20;;;;;;;14.80;5.50;;;;;;;;;;5007282;28;20052;-77
2022/04/28 04:02:47;;;;;;;11.18;4.90;;;;;;;;;;5001721;28;20039;-82
2022/04/28 04:05:13;;;;;;;10.77;4.53;;;;;;;;;;5018723;28;20048;-82
2022/04/28 04:07:41;;;;;;;23.67;4.30;;;;;;;;;;4982567;28;20037;-78
2022/04/28 04:10:08;;;;;;;10.65;4.20;;;;;;;;;;5015030;28;20091;-80
2022/04/28 04:12:34;;;;;;;13.00;4.28;;;;;;;;;;4974545;28;20049;-81
2022/04/28 04:15:00;;;;;;;16.10;4.00;;;;;;;;;;5008901;28;20049;-81
2022/04/28 04:17:26;;;;;;;17.85;4.13;;;;;;;;;;5021270;28;20053;-81
2022/04/28 04:19:52;;;;;;;14.88;4.32;;;;;;;;;;5026292;28;20040;-81
2022/04/28 04:22:19;;;;;;;17.52;3.50;;;;;;;;;;5020770;28;20045;-81
2022/04/28 04:24:45;;;;;;;13.85;3.55;;;;;;;;;;5000963;28;20049;-81
2022/04/28 04:27:11;;;;;;;16.60;3.60;;;;;;;;;;4983462;28;20041;-82
2022/04/28 04:29:37;;;;;;;10.85;3.40;;;;;;;;;;5000106;28;20462;-82
2022/04/28 04:32:20;;;;;;;14.48;3.75;;;;;;;;;;4999128;28;20512;-81
2022/04/28 04:34:47;;;;;;;8.40;3.03;;;;;;;;;;5000268;28;20042;-83
2022/04/28 04:37:13;;;;;;;12.60;3.38;;;;;;;;;;4967896;28;20450;-76
2022/04/28 04:39:40;;;;;;;14.77;3.10;;;;;;;;;;5020925;28;20087;-78
2022/04/28 04:42:07;;;;;;;10.93;3.50;;;;;;;;;;5019735;28;20051;-75
2022/04/28 04:44:34;;;;;;;12.77;3.13;;;;;;;;;;5021245;28;20802;-81
2022/04/28 04:47:00;;;;;;;10.40;3.00;;;;;;;;;;5021207;28;20049;-81
2022/04/28 04:49:27;;;;;;;13.15;3.38;;;;;;;;;;5025035;28;20056;-80
2022/04/28 04:51:53;;;;;;;8.30;2.88;;;;;;;;;;5002226;28;20081;-80
2022/04/28 04:54:20;;;;;;;12.60;2.55;;;;;;;;;;5023204;28;20049;-81
2022/04/28 04:56:46;;;;;;;12.20;3.15;;;;;;;;;;5020741;28;20120;-79
2022/04/28 04:59:12;;;;;;;12.77;3.67;;;;;;;;;;5020126;28;20091;-79
2022/04/28 05:01:39;;;;;;;5.78;2.85;;;;;;;;;;5022634;28;20048;-79
2022/04/28 05:04:06;;;;;;;11.40;2.55;;;;;;;;;;5019876;28;20570;-82
2022/04/28 05:06:33;;;;;;;13.80;2.45;;;;;;;;;;5022856;28;20143;-79
2022/04/28 05:08:59;;;;;;;13.95;3.22;;;;;;;;;;5020168;28;20045;-81
2022/04/28 05:11:25;;;;;;;11.48;2.85;;;;;;;;;;5003890;28;20559;-78
2022/04/28 05:13:51;;;;;;;10.00;2.63;;;;;;;;;;5018327;28;20508;-81
2022/04/28 05:16:17;;;;;;;12.50;3.17;;;;;;;;;;5021282;28;20057;-76
2022/04/28 05:18:44;;;;;;;10.70;2.92;;;;;;;;;;5023481;28;20080;-81
2022/04/28 05:21:10;;;;;;;9.30;2.58;;;;;;;;;;5019927;28;20537;-77
2022/04/28 05:23:36;;;;;;;8.88;2.72;;;;;;;;;;5022297;28;20072;-79
2022/04/28 05:26:02;;;;;;;9.40;2.65;;;;;;;;;;5000978;28;20041;-81
2022/04/28 05:28:28;;;;;;;11.50;2.60;;;;;;;;;;5020880;28;20084;-79
2022/04/28 05:30:55;;;;;;;18.10;3.22;;;;;;;;;;5018850;28;20544;-78
2022/04/28 05:33:22;;;;;;;12.00;2.47;;;;;;;;;;5020667;28;20460;-79
2022/04/28 05:35:48;;;;;;;9.40;2.67;;;;;;;;;;5004509;28;20033;-81
2022/04/28 05:38:14;;;;;;;10.18;3.00;;;;;;;;;;5020177;28;20037;-76
2022/04/28 05:40:42;;;;;;;7.10;1.95;;;;;;;;;;5021212;28;20049;-81
2022/04/28 05:45:54;;;;;;;13.70;2.45;;;;;;;;;;5000970;28;20057;-82
2022/04/28 05:48:21;;;;;;;10.10;2.50;;;;;;;;;;5018137;28;20064;-81
2022/04/28 05:50:47;;;;;;;9.48;2.15;;;;;;;;;;5020948;28;20056;-78
2022/04/28 05:53:13;;;;;;;10.57;1.92;;;;;;;;;;5003690;28;20128;-82
2022/04/28 05:55:40;;;;;;;9.88;2.33;;;;;;;;;;5022488;28;20486;-81
2022/04/28 05:58:06;;;;;;;14.27;3.08;;;;;;;;;;5020888;28;20308;-81
2022/04/28 06:00:33;;;;;;;14.93;2.80;;;;;;;;;;5019274;28;20076;-76
2022/04/28 06:03:00;;;;;;;10.85;2.22;;;;;;;;;;4988818;28;20045;-81
2022/04/28 06:05:27;;;;;;;8.75;1.88;;;;;;;;;;5026217;28;20064;-81
2022/04/28 06:07:53;;;;;;;12.45;2.85;;;;;;;;;;5029643;28;20497;-81
2022/04/28 06:10:19;;;;;;;14.32;2.78;;;;;;;;;;5010332;28;20053;-77
2022/04/28 06:12:46;;;;;;;13.68;2.58;;;;;;;;;;5025062;28;20041;-77
2022/04/28 06:15:14;;;;;;;11.95;2.20;;;;;;;;;;5027090;28;20042;-80
2022/04/28 06:17:40;;;;;;;11.77;2.47;;;;;;;;;;5008106;28;22238;-81
2022/04/28 06:20:07;;;;;;;14.88;2.53;;;;;;;;;;5028044;28;20041;-77
2022/04/28 06:22:33;;;;;;;11.63;2.10;;;;;;;;;;5030888;28;20076;-80
2022/04/28 06:24:59;;;;;;;7.57;1.88;;;;;;;;;;5024675;28;20116;-80
2022/04/28 06:27:28;;;;;;;7.00;1.90;;;;;;;;;;5024321;28;20057;-78
2022/04/28 06:29:54;;;;;;;9.13;2.15;;;;;;;;;;4991419;28;20045;-80
2022/04/28 06:32:20;;;;;;;16.80;2.90;;;;;;;;;;5006640;28;20053;-80
2022/04/28 06:34:47;;;;;;;14.32;2.60;;;;;;;;;;5022867;28;20033;-80
2022/04/28 06:37:16;;;;;;;11.50;2.05;;;;;;;;;;5023826;28;20046;-81
2022/04/28 06:39:43;;;;;;;18.77;2.75;;;;;;;;;;5002217;28;20494;-79
2022/04/28 06:42:09;;;;;;;11.68;1.75;;;;;;;;;;5006235;28;20045;-77
2022/04/28 06:44:36;;;;;;;12.95;2.15;;;;;;;;;;5004804;28;20141;-80
2022/04/28 06:47:03;;;;;;;10.32;2.05;;;;;;;;;;5025475;28;20042;-80
2022/04/28 06:49:29;;;;;;;22.77;3.05;;;;;;;;;;5006383;28;20068;-80
2022/04/28 06:51:55;;;;;;;10.60;2.75;;;;;;;;;;5005295;28;20033;-80
2022/04/28 06:54:21;;;;;;;11.85;2.40;;;;;;;;;;5007114;28;20053;-77
2022/04/28 06:56:47;;;;;;;11.13;2.40;;;;;;;;;;4984842;28;20644;-80
2022/04/28 06:59:13;;;;;;;13.32;1.88;;;;;;;;;;5006234;28;20037;-80
2022/04/28 07:01:40;;;;;;;8.60;2.15;;;;;;;;;;5004566;28;20043;-79
2022/04/28 07:04:06;;;;;;;16.42;3.22;;;;;;;;;;5007335;28;20045;-78
2022/04/28 07:06:32;;;;;;;16.48;2.47;;;;;;;;;;5004395;28;20041;-81
2022/04/28 07:08:58;;;;;;;11.20;2.28;;;;;;;;;;5005387;28;20034;-82
2022/04/28 07:11:24;;;;;;;8.82;2.22;;;;;;;;;;5021235;28;20065;-82
2022/04/28 07:13:51;;;;;;;9.98;2.33;;;;;;;;;;4988484;28;20099;-77
2022/04/28 07:16:17;;;;;;;22.20;2.65;;;;;;;;;;5008437;28;20042;-81
2022/04/28 07:18:43;;;;;;;17.73;3.42;;;;;;;;;;5009712;28;20038;-79
2022/04/28 07:21:09;;;;;;;18.08;2.80;;;;;;;;;;5008835;28;20053;-80
2022/04/28 07:23:35;;;;;;;14.27;2.30;;;;;;;;;;4992874;28;20095;-80
2022/04/28 07:26:01;;;;;;;9.80;1.92;;;;;;;;;;5009651;28;20775;-79
2022/04/28 07:28:27;;;;;;;15.52;2.67;;;;;;;;;;5008764;28;20114;-79
2022/04/28 07:30:53;;;;;;;19.10;3.22;;;;;;;;;;5001355;28;20041;-80
2022/04/28 07:33:19;;;;;;;15.10;2.90;;;;;;;;;;5024762;28;20061;-80
2022/04/28 07:35:46;;;;;;;12.05;2.42;;;;;;;;;;4973423;28;20045;-80
2022/04/28 07:38:12;;;;;;;12.80;2.30;;;;;;;;;;4990919;28;20053;-80
2022/04/28 07:40:38;;;;;;;16.55;3.38;;;;;;;;;;5001646;28;20042;-79
2022/04/28 07:43:04;;;;;;;18.08;3.38;;;;;;;;;;5017219;28;20443;-80
2022/04/28 07:45:31;;;;;;;17.27;3.10;;;;;;;;;;5006357;28;20046;-79
2022/04/28 07:47:57;;;;;;;13.57;3.00;;;;;;;;;;4990356;28;20036;-76
2022/04/28 07:50:24;;;;;;;14.68;2.95;;;;;;;;;;4987284;28;20053;-81
2022/04/28 07:52:50;;;;;;;20.45;3.65;;;;;;;;;;5004356;28;20065;-80
2022/04/28 07:55:16;;;;;;;16.63;3.28;;;;;;;;;;5027475;28;20041;-81
2022/04/28 07:57:42;;;;;;;14.90;3.05;;;;;;;;;;5006659;28;20038;-81
2022/04/28 08:00:09;;;;;;;14.68;3.25;;;;;;;;;;5003589;28;20041;-81
2022/04/28 08:02:38;;;;;;;14.65;2.75;;;;;;;;;;5008800;28;20455;-81
2022/04/28 08:05:08;;;;;;;14.15;3.65;;;;;;;;;;5026179;28;20398;-80
2022/04/28 08:07:34;;;;;;;11.55;3.88;;;;;;;;;;4978341;28;20581;-81
2022/04/28 08:10:02;;;;;;;19.02;3.88;;;;;;;;;;5005309;28;20049;-77
2022/04/28 08:12:28;;;;;;;16.77;3.80;;;;;;;;;;5006507;28;20076;-81
2022/04/28 08:14:54;;;;;;;13.65;3.40;;;;;;;;;;5008347;28;20071;-79
2022/04/28 08:17:20;;;;;;;17.67;4.88;;;;;;;;;;5009223;28;20087;-80
2022/04/28 08:19:46;;;;;;;16.83;3.95;;;;;;;;;;5007198;28;20038;-81
2022/04/28 08:22:12;;;;;;;13.18;3.17;;;;;;;;;;5023855;28;20520;-80
2022/04/28 08:24:38;;;;;;;16.58;3.38;;;;;;;;;;5005850;28;20397;-82
2022/04/28 08:27:04;;;;;;;13.23;3.00;;;;;;;;;;5018778;28;20052;-78
2022/04/28 08:29:30;;;;;;;13.52;2.83;;;;;;;;;;5005475;28;20130;-79
2022/04/28 08:31:56;;;;;;;18.65;2.90;;;;;;;;;;5000831;28;20034;-80
2022/04/28 08:34:23;;;;;;;17.38;2.80;;;;;;;;;;5006062;28;20037;-76
2022/04/28 08:36:50;;;;;;;16.73;2.88;;;;;;;;;;5020930;28;20045;-78
2022/04/28 08:39:16;;;;;;;18.35;3.55;;;;;;;;;;5029657;28;20128;-78
2022/04/28 08:41:45;;;;;;;13.60;2.20;;;;;;;;;;5016026;28;20045;-78
2022/04/28 08:44:15;;;;;;;14.70;3.28;;;;;;;;;;5000689;28;20080;-80
2022/04/28 08:46:53;;;;;;;23.38;3.30;;;;;;;;;;5008895;28;20059;-81
2022/04/28 08:49:24;;;;;;;14.25;2.97;;;;;;;;;;5023131;28;20065;-80
2022/04/28 08:51:58;;;;;;;20.13;3.05;;;;;;;;;;5007001;28;20053;-77
2022/04/28 08:54:24;;;;;;;;;;;;;;;;;;4998363;28;20054;-78
2022/04/28 08:56:51;;;;;;;12.07;2.55;;;;;;;;;;5022040;28;19925;-78
2022/04/28 08:59:18;;;;;;;28.38;3.63;;;;;;;;;;5023898;28;20433;-83
2022/04/28 09:01:47;;;;;;;54.70;4.80;;;;;;;;;;5022558;28;20128;-80
2022/04/28 09:04:14;;;;;;;12.50;2.65;;;;;;;;;;5005128;28;20132;-81
2022/04/28 09:06:41;;;;;;;22.02;2.75;;;;;;;;;;4988409;28;20091;-80
2022/04/28 09:09:09;;;;;;;20.33;3.42;;;;;;;;;;5007302;28;20081;-73
2022/04/28 09:11:37;;;;;;;23.02;2.85;;;;;;;;;;4984599;28;20076;-78
2022/04/28 09:14:14;;;;;;;27.25;3.90;;;;;;;;;;5024670;28;20442;-78
2022/04/28 09:16:48;;;;;;;17.95;2.70;;;;;;;;;;4998397;28;20046;-77
2022/04/28 09:19:19;;;;;;;23.60;3.40;;;;;;;;;;4999703;28;20030;-79
2022/04/28 09:21:46;;;;;;;25.67;3.55;;;;;;;;;;5021309;28;20056;-74
2022/04/28 09:24:13;;;;;;;19.50;3.22;;;;;;;;;;5004536;28;20049;-81
2022/04/28 09:26:39;;;;;;;26.50;3.38;;;;;;;;;;5004780;28;20081;-81
2022/04/28 09:29:06;;;;;;;18.92;3.35;;;;;;;;;;5019674;28;20072;-78
2022/04/28 09:31:37;;;;;;;29.65;4.55;;;;;;;;;;5005000;28;20054;-74
2022/04/28 09:34:10;;;;;;;22.00;4.00;;;;;;;;;;5006489;28;20053;-81
2022/04/28 09:36:37;;;;;;;22.17;3.57;;;;;;;;;;4998938;28;20281;-81
2022/04/28 09:39:04;;;;;;;19.92;2.78;;;;;;;;;;5006603;28;20037;-78
2022/04/28 09:44:16;;;;;;;16.00;2.78;;;;;;;;;;4997692;28;20146;-81
2022/04/28 09:46:47;;;;;;;28.30;3.83;;;;;;;;;;5004716;28;20674;-80
2022/04/28 09:49:17;;;;;;;14.07;2.42;;;;;;;;;;5025317;28;20038;-76
2022/04/28 09:51:43;;;;;;;24.20;3.03;;;;;;;;;;5006860;28;20092;-81
2022/04/28 09:54:11;;;;;;;18.40;2.80;;;;;;;;;;5006985;28;20120;-80
2022/04/28 09:56:38;;;;;;;16.20;2.92;;;;;;;;;;5008254;28;20201;-81
2022/04/28 09:59:05;;;;;;;19.67;3.00;;;;;;;;;;5009358;28;20053;-80
2022/04/28 10:01:32;;;;;;;9.45;2.10;;;;;;;;;;5029868;28;20095;-81
2022/04/28 10:03:58;;;;;;;16.90;2.83;;;;;;;;;;5010621;28;20092;-81
2022/04/28 10:06:34;;;;;;;14.27;2.20;;;;;;;;;;4994740;28;20052;-81
2022/04/28 10:09:03;;;;;;;36.53;4.05;;;;;;;;;;4992587;28;20070;-80
2022/04/28 10:11:29;;;;;;;13.38;3.17;;;;;;;;;;4992614;28;20929;-80
2022/04/28 10:13:56;;;;;;;16.48;3.28;;;;;;;;;;5011992;28;20141;-80
2022/04/28 10:16:24;;;;;;;25.10;3.38;;;;;;;;;;5027421;28;20334;-81
2022/04/28 10:18:50;;;;;;;17.15;2.88;;;;;;;;;;4995724;28;20042;-81
2022/04/28 10:21:20;;;;;;;11.52;2.25;;;;;;;;;;5010532;28;20041;-80
2022/04/28 10:32:22;;;;;;;18.55;3.58;;;;;;;;;;5011335;28;20064;-81
2022/04/28 10:35:06;;;;;;;26.20;4.93;;;12.90;99.90;;;;;;5013779;28;20136;-81
2022/04/28 10:37:36;;;;;;;20.35;4.25;;;;;;;;;;5027652;28;20053;-82
2022/04/28 10:40:03;;;;;;;17.13;3.80;;;;;;;;;;5011335;28;20068;-81
2022/04/28 10:42:30;;;;;;;16.55;2.40;;;;;;;;;;4993341;28;20398;-82
2022/04/28 10:45:04;;;;;;;22.27;3.53;;;;;;;;;;5010224;28;20088;-82
2022/04/28 10:47:30;;;;;;;;;;;;;;;;;;5028551;28;20512;-82
2022/04/28 10:49:57;;;;;;;14.00;3.13;;;;;;;;;;5027705;28;19920;-81
2022/04/28 10:52:24;;;;;;;15.77;3.08;;;;;;;;;;5010911;28;20643;-81
2022/04/28 10:55:01;;;;;;;16.67;2.78;;;;;;;;;;5028188;28;20033;-80
2022/04/28 10:57:31;;;;;;;16.75;2.78;;;;;;;;;;5029269;28;20037;-79
2022/04/28 10:59:57;;;;;;;10.20;3.05;;;;;;;;;;5027954;28;20038;-79
2022/04/28 11:02:23;;;;;;;15.68;2.63;;;;;;;;;;5039950;28;20049;-79
2022/04/28 11:04:55;;;;;;;15.10;2.80;;;;;;;;;;5026012;28;20044;-79
2022/04/28 11:07:25;;;;;;;7.88;2.85;;;;;;;;;;5021463;28;20103;-80
2022/04/28 11:09:55;;;;;;;13.18;2.58;;;;;;;;;;5012616;28;20049;-79
2022/04/28 11:12:22;;;;;;;15.82;2.60;;;;;;;;;;5027589;28;20049;-80
2022/04/28 11:15:03;;;;;;;11.65;2.47;;;;;;;;;;5028800;28;20056;-79
2022/04/28 11:17:30;;;;;;;9.85;2.53;;;;;;;;;;5027598;28;20433;-80
2022/04/28 11:19:58;;;;;;;14.15;3.03;;;;;;;;;;5027753;28;20056;-79
2022/04/28 11:22:24;;;;;;;14.27;2.67;;;;;;;;;;5009843;28;20053;-82
2022/04/28 11:24:50;;;;;;;9.35;2.47;;;;;;;;;;5028171;28;20171;-78
2022/04/28 11:27:20;;;;;;;9.13;1.98;;;;;;;;;;5027750;28;20068;-80
2022/04/28 11:29:47;;;;;;;10.25;1.98;;;;;;;;;;5027298;28;20049;-81
2022/04/28 11:32:15;;;;;;;12.40;2.63;;;;;;;;;;5027522;28;20056;-79
2022/04/28 11:34:44;;;;;;;10.55;2.75;;;;;;;;;;5009183;28;20066;-80
2022/04/28 11:37:17;;;;;;;12.85;2.53;;;;;;;;;;5027730;28;20045;-81
2022/04/28 11:39:44;;;;;;;12.63;2.60;;;;;;;;;;5026744;28;20102;-79
2022/04/28 11:42:12;;;;;;;8.07;2.35;;;;;;;;;;5027618;28;20682;-79
2022/04/28 11:44:51;;;;;;;11.70;2.35;;;;;;;;;;5010312;28;20340;-81
2022/04/28 11:47:18;;;;;;;11.77;3.30;;;;;;;;;;5025227;28;20061;-79
2022/04/28 11:49:44;;;;;;;12.10;3.10;;;;;;;;;;5010654;28;20045;-79
2022/04/28 11:52:17;;;;;;;17.50;2.38;;;;;;;;;;5026458;28;20045;-80
2022/04/28 11:54:43;;;;;;;18.10;2.42;;;;;;;;;;5028031;28;20068;-79
2022/04/28 11:57:10;;;;;;;13.60;2.17;;;;;;;;;;5027653;28;20423;-78
2022/04/28 11:59:37;;;;;;;14.27;2.90;;;;;;;;;;5027461;28;20128;-79
2022/04/28 12:02:03;;;;;;;12.27;2.20;;;;;;;;;;5026932;28;20049;-79
2022/04/28 12:04:29;;;;;;;7.65;2.00;;;;;;;;;;5025934;28;20038;-78
2022/04/28 12:06:55;;;;;;;13.40;2.33;;;;;;;;;;5026673;28;20109;-79
2022/04/28 12:14:55;;;;;;;13.48;2.47;;;;;;;;;;5027482;28;20129;-80
2022/04/28 12:20:11;;;;;;;12.68;2.08;;;;;;;;;;4998213;28;20651;-79
2022/04/28 12:22:39;;;;;;;13.38;2.95;;;;;;;;;;5007455;28;20044;-79
2022/04/28 12:25:09;;;;;;;11.93;2.10;;;;;;;;;;5009904;28;20489;-79
2022/04/28 12:27:39;;;;;;;11.48;2.17;;;;;;;;;;5008943;28;20042;-81
2022/04/28 12:30:08;;;;;;;13.10;2.28;;;;;;;;;;5008824;28;20053;-79
2022/04/28 12:32:41;;;;;;;13.65;3.20;;;;;;;;;;4993684;28;20053;-80
2022/04/28 12:35:08;;;;;;;17.52;3.28;;;;;;;;;;5007709;28;20034;-80
2022/04/28 12:37:38;;;;;;;15.38;2.60;;;;;;;;;;5001097;28;20568;-80
2022/04/28 12:40:05;;;;;;;18.30;3.25;;;;;;;;;;5007966;28;20129;-80
2022/04/28 12:42:50;;;;;;;16.13;2.50;;;;;;;;;;4977206;28;20033;-78
2022/04/28 12:45:16;;;;;;;10.77;2.13;;;;;;;;;;5015630;28;20054;-79
2022/04/28 12:47:44;;;;;;;13.07;2.30;;;;;;;;;;5006133;28;20054;-80
2022/04/28 12:50:25;;;;;;;28.48;4.05;;;;;;;;;;5000388;28;20778;-81
2022/04/28 12:52:52;;;;;;;25.38;2.40;;;;;;;;;;5005691;28;20095;-80
2022/04/28 12:55:20;;;;;;;10.38;2.25;;;;;;;;;;5024854;28;20041;-80
2022/04/28 12:57:53;;;;;;;15.13;1.63;;;;;;;;;;5008273;28;20715;-79
2022/04/28 13:00:19;;;;;;;14.88;2.47;;;;;;;;;;4990710;28;20469;-80
2022/04/28 13:02:47;;;;;;;12.93;2.03;;;;;;;;;;4992382;28;20048;-80
2022/04/28 13:05:18;;;;;;;23.98;3.58;;;;;;;;;;5024569;28;20037;-79
2022/04/28 13:07:45;;;;;;;13.63;2.85;;;;;;;;;;5008849;28;20103;-80
2022/04/28 13:10:13;;;;;;;24.90;3.20;;;;;;;;;;5005853;28;20107;-79
2022/04/28 13:12:40;;;;;;;21.70;2.42;;;;;;;;;;5026359;28;20041;-79
2022/04/28 13:15:07;;;;;;;11.82;2.10;;;;;;;;;;5026302;28;20464;-79
2022/04/28 13:17:33;;;;;;;12.23;2.10;;;;;;;;;;5008772;28;20093;-79
2022/04/28 13:19:59;;;;;;;12.35;1.90;;;;;;;;;;5026262;28;20095;-81
2022/04/28 13:22:25;;;;;;;16.48;2.28;;;;;;;;;;5008376;28;20493;-79
2022/04/28 13:24:52;;;;;;;13.48;2.60;;;;;;;;;;5013556;28;20049;-79
2022/04/28 13:27:18;;;;;;;13.07;2.90;;;;;;;;;;5013192;28;20485;-79
2022/04/28 13:29:46;;;;;;;17.75;2.38;;;;;;;;;;5033840;28;20420;-80
2022/04/28 13:32:12;;;;;;;14.27;2.25;;;;;;;;;;5027909;28;20045;-79
2022/04/28 13:34:39;;;;;;;9.45;2.10;;;;;;;;;;5021736;28;20047;-79
2022/04/28 13:37:07;;;;;;;14.50;2.70;;;;;;;;;;5027292;28;20624;-80
2022/04/28 13:39:34;;;;;;;14.50;2.10;;;;;;;;;;5006567;28;20076;-79
2022/04/28 13:42:00;;;;;;;10.65;1.92;;;;;;;;;;5024726;28;20433;-80
2022/04/28 13:44:27;;;;;;;9.55;1.90;;;;;;;;;;4986681;28;20151;-80
2022/04/28 13:46:55;;;;;;;7.13;1.75;;;;;;;;;;5005755;28;20093;-81
2022/04/28 13:49:21;;;;;;;12.55;2.33;;;;;;;;;;5002675;28;20057;-79
2022/04/28 13:51:47;;;;;;;13.35;2.08;;;;;;;;;;5003400;28;20053;-79
2022/04/28 13:54:13;;;;;;;15.80;2.45;;;;;;;;;;5002988;28;20041;-80
2022/04/28 13:56:39;;;;;;;10.30;1.88;;;;;;;;;;5003431;28;20422;-79
2022/04/28 13:59:05;;;;;;;9.82;1.60;;;;;;;;;;5003302;28;20061;-79
2022/04/28 14:01:33;;;;;;;9.82;2.60;;;;;;;;;;5003323;28;20030;-81
2022/04/28 14:04:02;;;;;;;13.55;3.03;;;;;;;;;;5003818;28;20050;-81
2022/04/28 14:06:28;;;;;;;17.58;2.03;;;;;;;;;;4992807;28;20057;-81
2022/04/28 14:08:55;;;;;;;12.25;2.30;;;;;;;;;;4993326;28;20034;-80
2022/04/28 14:11:21;;;;;;;10.98;2.47;;;;;;;;;;4965869;28;20054;-81
2022/04/28 14:13:47;;;;;;;14.00;2.55;;;;;;;;;;5001312;28;20092;-82
2022/04/28 14:16:13;;;;;;;12.18;2.15;;;;;;;;;;5002264;28;20524;-80
2022/04/28 14:18:43;;;;;;;12.13;2.28;;;;;;;;;;5005119;28;20139;-81
2022/04/28 14:21:12;;;;;;;13.73;2.20;;;;;;;;;;5001499;28;20464;-81
2022/04/28 14:23:38;;;;;;;11.57;2.08;;;;;;;;;;5002615;28;20053;-80
2022/04/28 14:26:04;;;;;;;13.90;2.05;;;;;;;;;;4970693;28;20128;-81
2022/04/28 14:28:30;;;;;;;14.65;2.10;;;;;;;;;;5003010;28;20164;-81
2022/04/28 14:30:57;;;;;;;13.50;2.20;;;;;;;;;;5001807;28;20052;-80
2022/04/28 14:33:26;;;;;;;11.57;1.63;;;;;;;;;;4996669;28;20049;-84
2022/04/28 14:35:52;;;;;;;7.82;2.17;;;;;;;;;;4998890;28;20038;-80
2022/04/28 14:38:19;;;;;;;11.77;1.80;;;;;;;;;;4995587;28;20057;-81
2022/04/28 14:40:49;;;;;;;10.30;1.70;;;;;;;;;;4997774;28;20050;-85
2022/04/28 14:43:15;;;;;;;12.18;2.58;;;;;;;;;;4997638;28;20053;-80
2022/04/28 14:45:43;;;;;;;15.32;2.15;;;;;;;;;;5019512;28;20076;-80
2022/04/28 14:48:09;;;;;;;6.75;1.75;;;;;;;;;;5023783;28;20128;-80
2022/04/28 14:53:19;;;;;;;7.88;2.17;;;;;;;;;;5023799;28;22175;-80
2022/04/28 14:55:46;;;;;;;11.40;1.90;;;;;;;;;;5020029;28;20487;-80
2022/04/28 14:58:17;;;;;;;13.25;2.03;;;;;;;;;;5022926;28;20041;-79
2022/04/28 15:00:43;;;;;;;9.07;2.25;;;;;;;;;;5016564;28;20540;-80
2022/04/28 15:03:10;;;;;;;7.47;2.00;;;;;;;;;;5027728;28;20037;-79
2022/04/28 15:05:36;;;;;;;9.88;2.05;;;;;;;;;;5027452;28;20609;-83
2022/04/28 15:08:02;;;;;;;12.38;2.05;;;;;;;;;;5024038;28;20127;-79
2022/04/28 15:10:29;;;;;;;8.30;1.70;;;;;;;;;;5023624;28;20141;-83
2022/04/28 15:12:55;;;;;;;16.48;3.33;;;;;;;;;;4998752;28;20053;-82